createdAt,value
2022-11-17T00:04:02.983Z,2.63
2022-11-17T00:09:04.676Z,1.95
2022-11-17T00:14:09.386Z,1.60
2022-11-17T00:19:10.914Z,1.60
2022-11-17T00:24:16.368Z,1.50
2022-11-17T00:29:17.930Z,1.20
2022-11-17T00:34:21.860Z,1.60
2022-11-17T00:39:24.197Z,1.15
2022-11-17T00:44:26.650Z,1.75
2022-11-17T00:49:28.419Z,1.75
2022-11-17T00:54:30.284Z,1.42
2022-11-17T00:59:31.962Z,1.98
2022-11-17T01:04:37.829Z,1.73
2022-11-17T01:09:39.517Z,1.23
2022-11-17T01:14:41.248Z,1.52
2022-11-17T01:19:42.949Z,1.58
2022-11-17T01:24:44.607Z,2.30
2022-11-17T01:29:46.172Z,2.00
2022-11-17T01:34:47.844Z,1.58
2022-11-17T01:39:49.565Z,1.90
2022-11-17T01:44:58.909Z,2.35
2022-11-17T01:50:22.281Z,1.50
2022-11-17T01:55:26.059Z,0.95
2022-11-17T02:00:28.558Z,1.15
2022-11-17T02:05:39.620Z,0.80
2022-11-17T02:10:48.549Z,0.95
2022-11-17T02:15:53.141Z,0.80
2022-11-17T02:21:06.397Z,0.68
2022-11-17T02:26:20.820Z,0.82
2022-11-17T02:31:54.647Z,0.70
2022-11-17T02:37:18.956Z,0.70
2022-11-17T02:42:25.606Z,0.73
2022-11-17T02:47:30.477Z,0.65
2022-11-17T02:52:32.583Z,1.15
2022-11-17T02:57:39.999Z,0.80
2022-11-17T03:03:10.193Z,0.73
2022-11-17T03:08:27.515Z,0.60
2022-11-17T03:13:40.764Z,0.50
2022-11-17T03:18:42.242Z,0.73
2022-11-17T03:23:57.168Z,0.80
2022-11-17T03:29:01.905Z,0.50
2022-11-17T03:34:08.665Z,0.77
2022-11-17T03:44:24.455Z,0.57
2022-11-17T03:49:32.972Z,0.80
2022-11-17T03:54:36.269Z,0.60
2022-11-17T03:59:40.857Z,0.88
2022-11-17T04:04:42.528Z,1.05
2022-11-17T04:09:44.157Z,0.73
2022-11-17T04:14:45.978Z,0.52
2022-11-17T04:19:47.632Z,0.60
2022-11-17T04:24:49.314Z,0.82
2022-11-17T04:29:50.873Z,0.70
2022-11-17T04:34:52.407Z,1.17
2022-11-17T04:39:53.975Z,0.80
2022-11-17T04:44:55.555Z,1.00
2022-11-17T04:49:57.197Z,0.90
2022-11-17T04:54:58.822Z,0.80
2022-11-17T05:00:00.475Z,0.93
2022-11-17T05:05:02.260Z,0.80
2022-11-17T05:10:04.244Z,0.88
2022-11-17T05:15:06.356Z,0.98
2022-11-17T05:20:08.477Z,0.80
2022-11-17T05:25:10.265Z,1.00
2022-11-17T05:30:12.212Z,1.00
2022-11-17T05:35:13.971Z,0.73
2022-11-17T05:40:15.785Z,1.00
2022-11-17T05:45:17.385Z,1.35
2022-11-17T05:50:19.002Z,1.48
2022-11-17T05:55:20.650Z,1.48
2022-11-17T06:00:22.444Z,1.10
2022-11-17T06:05:24.048Z,0.98
2022-11-17T06:10:27.250Z,1.35
2022-11-17T06:15:29.816Z,1.00
2022-11-17T06:20:40.411Z,1.00
2022-11-17T06:25:43.013Z,1.10
2022-11-17T06:30:45.056Z,1.92
2022-11-17T06:35:49.033Z,1.23
2022-11-17T06:40:50.588Z,1.40
2022-11-17T06:45:52.180Z,1.70
2022-11-17T06:50:55.140Z,1.10
2022-11-17T06:55:57.062Z,1.30
2022-11-17T07:01:03.928Z,1.02
2022-11-17T07:06:07.963Z,1.00
2022-11-17T07:11:12.338Z,1.23
2022-11-17T07:16:21.689Z,1.13
2022-11-17T07:21:24.856Z,0.35
2022-11-17T07:26:26.505Z,0.30
2022-11-17T07:31:28.222Z,1.00
2022-11-17T07:36:29.842Z,0.20
2022-11-17T07:41:31.543Z,0.70
2022-11-17T07:46:33.155Z,0.38
2022-11-17T07:51:34.710Z,0.45
2022-11-17T07:56:36.282Z,2.08
2022-11-17T08:01:37.925Z,1.02
2022-11-17T08:06:39.553Z,2.22
2022-11-17T08:11:41.328Z,1.25
2022-11-17T08:16:42.929Z,0.80
2022-11-17T08:21:44.496Z,0.93
2022-11-17T08:26:46.136Z,0.75
2022-11-17T08:31:48.082Z,0.47
2022-11-17T08:36:49.704Z,0.40
2022-11-17T08:41:51.928Z,0.65
2022-11-17T08:46:53.490Z,0.60
2022-11-17T08:51:55.109Z,0.30
2022-11-17T08:56:58.123Z,0.40
2022-11-17T09:01:59.696Z,0.90
2022-11-17T09:07:01.314Z,0.30
2022-11-17T09:12:03.375Z,0.40
2022-11-17T09:17:04.923Z,0.30
2022-11-17T09:22:06.809Z,0.95
2022-11-17T09:27:08.333Z,0.60
2022-11-17T09:32:10.174Z,0.45
2022-11-17T09:37:11.734Z,0.77
2022-11-17T09:42:19.218Z,0.63
2022-11-17T09:47:39.246Z,0.40
2022-11-17T09:53:13.931Z,0.52
2022-11-17T09:58:34.684Z,0.77
2022-11-17T10:03:41.973Z,0.60
2022-11-17T10:09:25.413Z,0.32
2022-11-17T10:14:28.699Z,0.52
2022-11-17T10:19:32.368Z,0.30
2022-11-17T10:24:42.661Z,0.40
2022-11-17T10:29:57.611Z,0.52
2022-11-17T10:35:19.326Z,0.60
2022-11-17T10:40:45.853Z,0.28
2022-11-17T10:45:56.949Z,0.40
2022-11-17T10:51:04.792Z,0.20
2022-11-17T10:56:13.094Z,0.50
2022-11-17T11:01:26.988Z,0.30
2022-11-17T11:06:30.914Z,0.30
2022-11-17T11:11:42.053Z,0.30
2022-11-17T11:16:48.331Z,0.60
2022-11-17T11:27:05.250Z,0.30
2022-11-17T11:32:40.605Z,0.50
2022-11-17T11:38:07.719Z,0.60
2022-11-17T11:48:33.309Z,0.40
2022-11-17T11:53:50.298Z,0.20
2022-11-17T11:59:04.332Z,0.50
2022-11-17T12:04:47.270Z,0.55
2022-11-17T12:09:57.977Z,0.35
2022-11-17T12:15:08.603Z,0.40
2022-11-17T12:20:38.319Z,0.30
2022-11-17T12:25:52.252Z,0.35
2022-11-17T12:31:05.169Z,0.50
2022-11-17T12:36:31.759Z,0.45
2022-11-17T12:41:48.667Z,0.40
2022-11-17T12:47:04.388Z,0.35
2022-11-17T12:52:14.297Z,0.30
2022-11-17T12:57:28.327Z,0.55
2022-11-17T13:02:46.222Z,0.55
2022-11-17T13:07:47.940Z,0.50
2022-11-17T13:12:49.510Z,0.38
2022-11-17T13:17:52.065Z,0.40
2022-11-17T13:23:01.103Z,0.50
2022-11-17T13:28:05.403Z,0.50
2022-11-17T13:33:16.902Z,0.65
2022-11-17T13:38:19.798Z,0.50
2022-11-17T13:43:23.290Z,0.50
2022-11-17T13:48:39.232Z,0.40
2022-11-17T13:53:43.536Z,0.50
2022-11-17T13:58:49.126Z,0.52
2022-11-17T14:03:51.964Z,0.60
2022-11-17T14:09:05.207Z,0.45
2022-11-17T14:14:13.826Z,0.93
2022-11-17T14:19:15.741Z,1.08
2022-11-17T14:24:17.761Z,0.50
2022-11-17T14:29:19.536Z,0.82
2022-11-17T14:34:21.844Z,1.10
2022-11-17T14:39:23.395Z,0.85
2022-11-17T14:44:24.961Z,1.13
2022-11-17T14:49:26.673Z,0.50
2022-11-17T14:54:28.469Z,0.85
2022-11-17T14:59:31.174Z,1.27
2022-11-17T15:04:49.993Z,1.38
2022-11-17T15:09:53.151Z,0.70
2022-11-17T15:14:54.684Z,1.00
2022-11-17T15:19:56.285Z,0.60
2022-11-17T15:24:57.831Z,1.13
2022-11-17T15:29:59.375Z,0.75
2022-11-17T15:35:01.071Z,0.90
2022-11-17T15:40:02.747Z,1.00
2022-11-17T15:45:04.641Z,1.48
2022-11-17T15:50:06.767Z,1.15
2022-11-17T15:55:08.693Z,0.90
2022-11-17T16:00:10.887Z,0.90
2022-11-17T16:05:12.469Z,1.00
2022-11-17T16:10:14.426Z,1.00
2022-11-17T16:15:16.701Z,1.25
2022-11-17T16:20:18.402Z,1.00
2022-11-17T16:25:20.138Z,0.90
2022-11-17T16:30:22.060Z,1.08
2022-11-17T16:35:23.771Z,1.27
2022-11-17T16:40:25.334Z,1.30
2022-11-17T16:45:27.081Z,0.90
2022-11-17T16:50:28.681Z,1.00
2022-11-17T16:55:33.520Z,1.05
2022-11-17T17:00:35.151Z,0.90
2022-11-17T17:05:39.534Z,0.82
2022-11-17T17:10:41.123Z,1.38
2022-11-17T17:15:42.778Z,1.38
2022-11-17T17:20:53.340Z,0.90
2022-11-17T17:26:01.816Z,1.75
2022-11-17T17:31:04.475Z,1.10
2022-11-17T17:36:08.579Z,1.38
2022-11-17T17:41:16.048Z,1.48
2022-11-17T17:46:17.758Z,1.13
2022-11-17T17:51:21.916Z,1.88
2022-11-17T17:56:24.096Z,0.88
2022-11-17T18:01:28.378Z,1.40
2022-11-17T18:06:31.352Z,1.38
2022-11-17T18:11:33.448Z,1.60
2022-11-17T18:16:35.031Z,1.40
2022-11-17T18:21:36.806Z,1.80
2022-11-17T18:26:39.128Z,1.80
2022-11-17T18:31:41.039Z,1.20
2022-11-17T18:36:42.637Z,1.70
2022-11-17T18:41:44.566Z,2.30
2022-11-17T18:46:46.619Z,11.57
2022-11-17T18:51:48.270Z,3.60
2022-11-17T18:56:49.905Z,1.73
2022-11-17T19:01:51.583Z,3.58
2022-11-17T19:06:53.216Z,1.85
2022-11-17T19:11:54.829Z,3.22
2022-11-17T19:16:56.445Z,1.50
2022-11-17T19:21:58.010Z,1.25
2022-11-17T19:26:59.651Z,1.80
2022-11-17T19:32:01.334Z,1.85
2022-11-17T19:37:03.012Z,1.90
2022-11-17T19:42:04.835Z,1.92
2022-11-17T19:47:06.629Z,1.80
2022-11-17T19:52:08.237Z,1.75
2022-11-17T19:57:09.794Z,0.93
2022-11-17T20:02:11.777Z,1.67
2022-11-17T20:07:13.499Z,1.55
2022-11-17T20:12:15.225Z,1.73
2022-11-17T20:17:16.925Z,2.03
2022-11-17T20:22:18.545Z,2.45
2022-11-17T20:27:20.145Z,1.80
2022-11-17T20:32:21.780Z,2.45
2022-11-17T20:37:23.598Z,2.40
2022-11-17T20:42:25.193Z,3.22
2022-11-17T20:47:26.781Z,3.63
2022-11-17T20:52:28.508Z,3.42
2022-11-17T20:57:30.060Z,3.25
2022-11-17T21:02:31.978Z,2.72
2022-11-17T21:07:33.717Z,3.28
2022-11-17T21:12:35.518Z,3.17
2022-11-17T21:17:37.164Z,3.17
2022-11-17T21:22:38.875Z,3.20
2022-11-17T21:27:40.429Z,3.70
2022-11-17T21:32:42.237Z,3.95
2022-11-17T21:37:43.870Z,3.88
2022-11-17T21:42:45.710Z,3.80
2022-11-17T21:47:47.344Z,3.95
2022-11-17T21:52:49.264Z,3.97
2022-11-17T21:57:51.068Z,3.88
2022-11-17T22:02:52.952Z,4.85
2022-11-17T22:07:54.726Z,3.90
2022-11-17T22:12:56.379Z,4.50
2022-11-17T22:17:58.044Z,4.10
2022-11-17T22:22:59.702Z,4.47
2022-11-17T22:28:01.290Z,4.38
2022-11-17T22:33:02.864Z,4.00
2022-11-17T22:38:04.474Z,4.47
2022-11-17T22:43:11.746Z,4.78
2022-11-17T22:48:16.215Z,4.85
2022-11-17T22:53:17.997Z,5.28
2022-11-17T22:58:20.055Z,4.40
2022-11-17T23:03:22.018Z,5.15
2022-11-17T23:08:23.744Z,4.43
2022-11-17T23:13:25.379Z,4.78
2022-11-17T23:18:27.278Z,4.63
2022-11-17T23:23:33.123Z,4.18
2022-11-17T23:28:35.635Z,4.17
2022-11-17T23:33:40.158Z,3.85
2022-11-17T23:38:41.974Z,4.05
2022-11-17T23:43:43.688Z,3.85
2022-11-17T23:48:45.547Z,3.75
2022-11-17T23:53:47.373Z,3.80
2022-11-17T23:58:50.148Z,4.18
